sensor_id;sensor_type;location;lat;lon;timestamp;temperature;humidity
12370;DHT22;6249;52.128;9.986;2022-11-15T00:20:02;10.70;99.90
12370;DHT22;6249;52.128;9.986;2022-11-15T00:23:23;10.60;99.90
12370;DHT22;6249;52.128;9.986;2022-11-15T00:26:43;10.70;99.90
12370;DHT22;6249;52.128;9.986;2022-11-15T00:30:04;10.80;99.90
12370;DHT22;6249;52.128;9.986;2022-11-15T00:33:27;10.70;99.90
12370;DHT22;6249;52.128;9.986;2022-11-15T00:36:48;10.60;99.90
12370;DHT22;6249;52.128;9.986;2022-11-15T00:40:11;10.50;99.90
12370;DHT22;6249;52.128;9.986;2022-11-15T00:43:33;10.60;99.90
12370;DHT22;6249;52.128;9.986;2022-11-15T00:46:54;10.50;99.90
12370;DHT22;6249;52.128;9.986;2022-11-15T00:53:41;10.40;99.90
12370;DHT22;6249;52.128;9.986;2022-11-15T00:57:02;10.60;99.90
12370;DHT22;6249;52.128;9.986;2022-11-15T01:00:22;10.70;99.90
12370;DHT22;6249;52.128;9.986;2022-11-15T01:03:45;10.70;99.90
12370;DHT22;6249;52.128;9.986;2022-11-15T01:07:08;10.80;99.90
12370;DHT22;6249;52.128;9.986;2022-11-15T01:10:29;10.80;99.90
12370;DHT22;6249;52.128;9.986;2022-11-15T01:13:52;10.80;99.90
12370;DHT22;6249;52.128;9.986;2022-11-15T01:17:12;10.70;99.90
12370;DHT22;6249;52.128;9.986;2022-11-15T01:20:42;10.80;99.90
12370;DHT22;6249;52.128;9.986;2022-11-15T01:24:05;10.90;99.90
12370;DHT22;6249;52.128;9.986;2022-11-15T01:27:26;10.90;99.90
12370;DHT22;6249;52.128;9.986;2022-11-15T01:30:47;11.00;99.90
12370;DHT22;6249;52.128;9.986;2022-11-15T01:34:08;11.10;99.90
12370;DHT22;6249;52.128;9.986;2022-11-15T01:37:28;11.20;99.90
12370;DHT22;6249;52.128;9.986;2022-11-15T01:40:49;11.10;99.90
12370;DHT22;6249;52.128;9.986;2022-11-15T01:47:55;11.10;99.90
12370;DHT22;6249;52.128;9.986;2022-11-15T01:51:17;11.10;99.90
12370;DHT22;6249;52.128;9.986;2022-11-15T01:54:42;11.20;99.90
12370;DHT22;6249;52.128;9.986;2022-11-15T01:58:04;11.20;99.90
12370;DHT22;6249;52.128;9.986;2022-11-15T02:01:26;11.20;99.90
12370;DHT22;6249;52.128;9.986;2022-11-15T02:04:51;11.30;99.90
12370;DHT22;6249;52.128;9.986;2022-11-15T02:08:12;11.50;99.90
12370;DHT22;6249;52.128;9.986;2022-11-15T02:11:40;11.50;99.90
12370;DHT22;6249;52.128;9.986;2022-11-15T02:15:01;11.50;99.90
12370;DHT22;6249;52.128;9.986;2022-11-15T02:18:31;11.60;99.90
12370;DHT22;6249;52.128;9.986;2022-11-15T02:25:41;11.60;99.90
12370;DHT22;6249;52.128;9.986;2022-11-15T02:33:05;11.80;99.90
12370;DHT22;6249;52.128;9.986;2022-11-15T02:40:16;11.80;99.90
12370;DHT22;6249;52.128;9.986;2022-11-15T02:43:47;11.80;99.90
12370;DHT22;6249;52.128;9.986;2022-11-15T02:47:21;11.60;99.90
12370;DHT22;6249;52.128;9.986;2022-11-15T02:50:47;11.70;99.90
12370;DHT22;6249;52.128;9.986;2022-11-15T02:54:13;11.70;99.90
12370;DHT22;6249;52.128;9.986;2022-11-15T03:08:34;11.50;99.90
12370;DHT22;6249;52.128;9.986;2022-11-15T03:12:25;11.30;99.90
12370;DHT22;6249;52.128;9.986;2022-11-15T03:15:56;11.20;99.90
12370;DHT22;6249;52.128;9.986;2022-11-15T03:22:50;10.90;99.90
12370;DHT22;6249;52.128;9.986;2022-11-15T03:26:14;10.70;99.90
12370;DHT22;6249;52.128;9.986;2022-11-15T03:29:40;10.60;99.90
12370;DHT22;6249;52.128;9.986;2022-11-15T03:33:06;10.50;99.90
12370;DHT22;6249;52.128;9.986;2022-11-15T03:36:28;10.60;99.90
12370;DHT22;6249;52.128;9.986;2022-11-15T03:39:50;10.60;99.90
12370;DHT22;6249;52.128;9.986;2022-11-15T03:50:34;10.40;99.90
12370;DHT22;6249;52.128;9.986;2022-11-15T03:53:55;10.40;99.90
12370;DHT22;6249;52.128;9.986;2022-11-15T03:57:18;10.30;99.90
12370;DHT22;6249;52.128;9.986;2022-11-15T04:00:41;10.40;99.90
12370;DHT22;6249;52.128;9.986;2022-11-15T04:04:02;10.40;99.90
12370;DHT22;6249;52.128;9.986;2022-11-15T04:07:23;10.50;99.90
12370;DHT22;6249;52.128;9.986;2022-11-15T04:10:49;10.50;99.90
12370;DHT22;6249;52.128;9.986;2022-11-15T04:14:12;10.30;99.90
12370;DHT22;6249;52.128;9.986;2022-11-15T04:21:05;10.10;99.90
12370;DHT22;6249;52.128;9.986;2022-11-15T04:24:46;10.00;99.90
12370;DHT22;6249;52.128;9.986;2022-11-15T04:28:10;10.10;99.90
12370;DHT22;6249;52.128;9.986;2022-11-15T04:31:30;10.10;99.90
12370;DHT22;6249;52.128;9.986;2022-11-15T04:34:53;10.00;99.90
12370;DHT22;6249;52.128;9.986;2022-11-15T04:38:14;10.00;99.90
12370;DHT22;6249;52.128;9.986;2022-11-15T04:41:37;10.10;99.90
12370;DHT22;6249;52.128;9.986;2022-11-15T04:44:57;10.20;99.90
12370;DHT22;6249;52.128;9.986;2022-11-15T04:48:18;10.30;99.90
12370;DHT22;6249;52.128;9.986;2022-11-15T04:51:41;10.20;99.90
12370;DHT22;6249;52.128;9.986;2022-11-15T04:55:01;10.20;99.90
12370;DHT22;6249;52.128;9.986;2022-11-15T04:58:22;10.20;99.90
12370;DHT22;6249;52.128;9.986;2022-11-15T05:01:45;10.10;99.90
12370;DHT22;6249;52.128;9.986;2022-11-15T05:05:06;10.10;99.90
12370;DHT22;6249;52.128;9.986;2022-11-15T05:08:27;10.00;99.90
12370;DHT22;6249;52.128;9.986;2022-11-15T05:11:50;10.00;99.90
12370;DHT22;6249;52.128;9.986;2022-11-15T05:15:10;10.10;99.90
12370;DHT22;6249;52.128;9.986;2022-11-15T05:18:31;10.20;99.90
12370;DHT22;6249;52.128;9.986;2022-11-15T05:21:52;10.20;99.90
12370;DHT22;6249;52.128;9.986;2022-11-15T05:25:12;10.30;99.90
12370;DHT22;6249;52.128;9.986;2022-11-15T05:28:36;10.20;99.90
12370;DHT22;6249;52.128;9.986;2022-11-15T05:31:56;10.20;99.90
12370;DHT22;6249;52.128;9.986;2022-11-15T05:35:30;10.20;99.90
12370;DHT22;6249;52.128;9.986;2022-11-15T05:38:53;10.20;99.90
12370;DHT22;6249;52.128;9.986;2022-11-15T05:42:15;10.20;99.90
12370;DHT22;6249;52.128;9.986;2022-11-15T05:45:36;10.20;99.90
12370;DHT22;6249;52.128;9.986;2022-11-15T05:48:58;10.20;99.90
12370;DHT22;6249;52.128;9.986;2022-11-15T05:52:21;10.20;99.90
12370;DHT22;6249;52.128;9.986;2022-11-15T05:55:43;10.00;99.90
12370;DHT22;6249;52.128;9.986;2022-11-15T05:59:04;10.00;99.90
12370;DHT22;6249;52.128;9.986;2022-11-15T06:02:27;10.00;99.90
12370;DHT22;6249;52.128;9.986;2022-11-15T06:05:48;10.00;99.90
12370;DHT22;6249;52.128;9.986;2022-11-15T06:09:08;10.10;99.90
12370;DHT22;6249;52.128;9.986;2022-11-15T06:12:29;10.10;99.90
12370;DHT22;6249;52.128;9.986;2022-11-15T06:15:50;10.00;99.90
12370;DHT22;6249;52.128;9.986;2022-11-15T06:19:12;9.90;99.90
12370;DHT22;6249;52.128;9.986;2022-11-15T06:22:33;9.80;99.90
12370;DHT22;6249;52.128;9.986;2022-11-15T06:25:58;9.70;99.90
12370;DHT22;6249;52.128;9.986;2022-11-15T06:29:19;9.60;99.90
12370;DHT22;6249;52.128;9.986;2022-11-15T06:32:42;9.60;99.90
12370;DHT22;6249;52.128;9.986;2022-11-15T06:36:04;9.60;99.90
12370;DHT22;6249;52.128;9.986;2022-11-15T06:39:27;9.60;99.90
12370;DHT22;6249;52.128;9.986;2022-11-15T06:42:50;9.70;99.90
12370;DHT22;6249;52.128;9.986;2022-11-15T06:46:13;9.60;99.90
12370;DHT22;6249;52.128;9.986;2022-11-15T06:49:34;9.60;99.90
12370;DHT22;6249;52.128;9.986;2022-11-15T06:52:55;9.70;99.90
12370;DHT22;6249;52.128;9.986;2022-11-15T06:56:18;9.80;99.90
12370;DHT22;6249;52.128;9.986;2022-11-15T06:59:38;9.80;99.90
12370;DHT22;6249;52.128;9.986;2022-11-15T07:03:02;9.80;99.90
12370;DHT22;6249;52.128;9.986;2022-11-15T07:06:22;9.90;99.90
12370;DHT22;6249;52.128;9.986;2022-11-15T07:09:43;10.00;99.90
12370;DHT22;6249;52.128;9.986;2022-11-15T07:13:03;10.10;99.90
12370;DHT22;6249;52.128;9.986;2022-11-15T07:16:24;10.10;99.90
12370;DHT22;6249;52.128;9.986;2022-11-15T07:19:45;10.20;99.90
12370;DHT22;6249;52.128;9.986;2022-11-15T07:23:05;10.20;99.90
12370;DHT22;6249;52.128;9.986;2022-11-15T07:26:26;10.20;99.90
12370;DHT22;6249;52.128;9.986;2022-11-15T07:29:49;10.10;99.90
12370;DHT22;6249;52.128;9.986;2022-11-15T07:33:16;10.10;99.90
12370;DHT22;6249;52.128;9.986;2022-11-15T07:36:37;10.20;99.90
12370;DHT22;6249;52.128;9.986;2022-11-15T07:39:57;10.30;99.90
12370;DHT22;6249;52.128;9.986;2022-11-15T07:43:18;10.30;99.90
12370;DHT22;6249;52.128;9.986;2022-11-15T07:46:39;10.20;99.90
12370;DHT22;6249;52.128;9.986;2022-11-15T07:49:59;10.50;99.90
12370;DHT22;6249;52.128;9.986;2022-11-15T07:53:20;10.50;99.90
12370;DHT22;6249;52.128;9.986;2022-11-15T07:56:40;10.70;99.90
12370;DHT22;6249;52.128;9.986;2022-11-15T08:00:05;10.70;99.90
12370;DHT22;6249;52.128;9.986;2022-11-15T08:03:36;10.70;99.90
12370;DHT22;6249;52.128;9.986;2022-11-15T08:06:58;10.80;99.90
12370;DHT22;6249;52.128;9.986;2022-11-15T08:10:20;10.80;99.90
12370;DHT22;6249;52.128;9.986;2022-11-15T08:13:45;10.90;99.90
12370;DHT22;6249;52.128;9.986;2022-11-15T08:17:55;11.00;99.90
12370;DHT22;6249;52.128;9.986;2022-11-15T08:21:05;11.10;99.90
12370;DHT22;6249;52.128;9.986;2022-11-15T08:24:26;11.10;99.90
12370;DHT22;6249;52.128;9.986;2022-11-15T08:27:47;11.20;99.90
12370;DHT22;6249;52.128;9.986;2022-11-15T08:31:19;11.40;99.90
12370;DHT22;6249;52.128;9.986;2022-11-15T08:34:40;11.60;99.90
12370;DHT22;6249;52.128;9.986;2022-11-15T08:38:03;11.80;99.90
12370;DHT22;6249;52.128;9.986;2022-11-15T08:41:31;11.90;99.90
12370;DHT22;6249;52.128;9.986;2022-11-15T08:44:52;12.20;99.90
12370;DHT22;6249;52.128;9.986;2022-11-15T08:48:13;12.60;99.90
12370;DHT22;6249;52.128;9.986;2022-11-15T08:51:33;12.80;99.90
12370;DHT22;6249;52.128;9.986;2022-11-15T08:54:54;13.40;99.90
12370;DHT22;6249;52.128;9.986;2022-11-15T08:58:14;13.50;99.90
12370;DHT22;6249;52.128;9.986;2022-11-15T09:01:37;13.80;99.90
12370;DHT22;6249;52.128;9.986;2022-11-15T09:05:00;14.10;99.90
12370;DHT22;6249;52.128;9.986;2022-11-15T09:08:24;14.20;99.90
12370;DHT22;6249;52.128;9.986;2022-11-15T09:11:45;14.50;99.90
12370;DHT22;6249;52.128;9.986;2022-11-15T09:15:10;14.60;99.90
12370;DHT22;6249;52.128;9.986;2022-11-15T09:18:31;14.70;99.90
12370;DHT22;6249;52.128;9.986;2022-11-15T09:21:53;14.80;99.90
12370;DHT22;6249;52.128;9.986;2022-11-15T09:25:13;15.00;99.90
12370;DHT22;6249;52.128;9.986;2022-11-15T09:28:36;15.20;99.90
12370;DHT22;6249;52.128;9.986;2022-11-15T09:32:00;15.40;99.90
12370;DHT22;6249;52.128;9.986;2022-11-15T09:35:21;15.50;99.90
12370;DHT22;6249;52.128;9.986;2022-11-15T09:38:44;15.70;99.90
12370;DHT22;6249;52.128;9.986;2022-11-15T09:46:12;16.20;99.90
12370;DHT22;6249;52.128;9.986;2022-11-15T09:49:35;16.30;99.90
12370;DHT22;6249;52.128;9.986;2022-11-15T09:52:55;16.70;99.90
12370;DHT22;6249;52.128;9.986;2022-11-15T09:56:25;17.00;99.90
12370;DHT22;6249;52.128;9.986;2022-11-15T10:00:38;17.10;99.90
12370;DHT22;6249;52.128;9.986;2022-11-15T10:03:41;17.00;99.90
12370;DHT22;6249;52.128;9.986;2022-11-15T10:07:13;17.00;99.90
12370;DHT22;6249;52.128;9.986;2022-11-15T10:10:49;17.30;99.90
12370;DHT22;6249;52.128;9.986;2022-11-15T10:14:19;17.70;99.90
12370;DHT22;6249;52.128;9.986;2022-11-15T10:28:45;18.60;99.90
12370;DHT22;6249;52.128;9.986;2022-11-15T10:32:06;18.70;99.90
12370;DHT22;6249;52.128;9.986;2022-11-15T10:35:30;18.20;99.90
12370;DHT22;6249;52.128;9.986;2022-11-15T10:42:25;17.20;99.90
12370;DHT22;6249;52.128;9.986;2022-11-15T10:45:46;17.20;99.90
12370;DHT22;6249;52.128;9.986;2022-11-15T10:52:46;16.60;99.90
12370;DHT22;6249;52.128;9.986;2022-11-15T10:56:14;16.20;99.90
12370;DHT22;6249;52.128;9.986;2022-11-15T10:59:38;15.90;99.90
12370;DHT22;6249;52.128;9.986;2022-11-15T11:03:01;15.70;99.90
12370;DHT22;6249;52.128;9.986;2022-11-15T11:06:22;15.50;99.90
12370;DHT22;6249;52.128;9.986;2022-11-15T11:09:43;15.60;99.90
12370;DHT22;6249;52.128;9.986;2022-11-15T11:20:44;15.50;99.90
12370;DHT22;6249;52.128;9.986;2022-11-15T11:24:21;15.50;99.90
12370;DHT22;6249;52.128;9.986;2022-11-15T11:27:57;15.30;99.90
12370;DHT22;6249;52.128;9.986;2022-11-15T11:31:29;15.20;99.90
12370;DHT22;6249;52.128;9.986;2022-11-15T11:35:01;15.20;99.90
12370;DHT22;6249;52.128;9.986;2022-11-15T11:56:36;14.90;99.90
12370;DHT22;6249;52.128;9.986;2022-11-15T12:00:22;14.90;99.90
12370;DHT22;6249;52.128;9.986;2022-11-15T12:04:01;14.90;99.90
12370;DHT22;6249;52.128;9.986;2022-11-15T12:07:27;15.20;99.90
12370;DHT22;6249;52.128;9.986;2022-11-15T12:11:10;15.50;99.90
12370;DHT22;6249;52.128;9.986;2022-11-15T12:18:32;16.50;99.90
12370;DHT22;6249;52.128;9.986;2022-11-15T12:22:11;16.70;99.90
12370;DHT22;6249;52.128;9.986;2022-11-15T12:29:40;16.50;99.90
12370;DHT22;6249;52.128;9.986;2022-11-15T12:33:01;16.50;99.90
12370;DHT22;6249;52.128;9.986;2022-11-15T12:40:05;17.00;99.90
12370;DHT22;6249;52.128;9.986;2022-11-15T12:43:38;16.90;99.90
12370;DHT22;6249;52.128;9.986;2022-11-15T12:57:46;16.30;99.90
12370;DHT22;6249;52.128;9.986;2022-11-15T13:01:10;16.20;99.90
12370;DHT22;6249;52.128;9.986;2022-11-15T13:04:47;16.10;99.90
12370;DHT22;6249;52.128;9.986;2022-11-15T13:08:07;16.10;99.90
12370;DHT22;6249;52.128;9.986;2022-11-15T13:11:45;16.30;99.90
12370;DHT22;6249;52.128;9.986;2022-11-15T13:18:42;16.40;99.90
12370;DHT22;6249;52.128;9.986;2022-11-15T13:22:08;16.50;99.90
12370;DHT22;6249;52.128;9.986;2022-11-15T13:29:19;16.40;99.90
12370;DHT22;6249;52.128;9.986;2022-11-15T13:32:42;16.40;99.90
12370;DHT22;6249;52.128;9.986;2022-11-15T13:36:12;16.40;99.90
12370;DHT22;6249;52.128;9.986;2022-11-15T13:39:34;16.20;99.90
12370;DHT22;6249;52.128;9.986;2022-11-15T13:42:57;16.20;99.90
12370;DHT22;6249;52.128;9.986;2022-11-15T13:46:26;16.20;99.90
12370;DHT22;6249;52.128;9.986;2022-11-15T13:49:47;16.30;99.90
12370;DHT22;6249;52.128;9.986;2022-11-15T13:53:10;16.50;99.90
12370;DHT22;6249;52.128;9.986;2022-11-15T13:56:31;17.10;99.90
12370;DHT22;6249;52.128;9.986;2022-11-15T14:06:46;18.60;99.90
12370;DHT22;6249;52.128;9.986;2022-11-15T14:10:36;18.30;99.90
12370;DHT22;6249;52.128;9.986;2022-11-15T14:14:21;17.90;99.90
12370;DHT22;6249;52.128;9.986;2022-11-15T14:17:42;17.40;99.90
12370;DHT22;6249;52.128;9.986;2022-11-15T14:21:09;17.20;99.90
12370;DHT22;6249;52.128;9.986;2022-11-15T14:24:30;17.00;99.90
12370;DHT22;6249;52.128;9.986;2022-11-15T14:31:43;17.20;99.90
12370;DHT22;6249;52.128;9.986;2022-11-15T14:35:14;16.90;99.90
12370;DHT22;6249;52.128;9.986;2022-11-15T14:38:37;16.80;99.90
12370;DHT22;6249;52.128;9.986;2022-11-15T14:41:58;16.70;99.90
12370;DHT22;6249;52.128;9.986;2022-11-15T14:45:22;16.70;99.90
12370;DHT22;6249;52.128;9.986;2022-11-15T14:48:43;16.50;99.90
12370;DHT22;6249;52.128;9.986;2022-11-15T14:52:29;16.40;99.90
12370;DHT22;6249;52.128;9.986;2022-11-15T14:55:49;16.10;99.90
12370;DHT22;6249;52.128;9.986;2022-11-15T14:59:09;15.90;99.90
12370;DHT22;6249;52.128;9.986;2022-11-15T15:02:32;15.80;99.90
12370;DHT22;6249;52.128;9.986;2022-11-15T15:05:55;15.70;99.90
12370;DHT22;6249;52.128;9.986;2022-11-15T15:09:18;15.70;99.90
12370;DHT22;6249;52.128;9.986;2022-11-15T15:12:39;15.60;99.90
12370;DHT22;6249;52.128;9.986;2022-11-15T15:16:00;15.40;99.90
12370;DHT22;6249;52.128;9.986;2022-11-15T15:19:23;15.20;99.90
12370;DHT22;6249;52.128;9.986;2022-11-15T15:22:44;15.10;99.90
12370;DHT22;6249;52.128;9.986;2022-11-15T15:26:05;15.00;99.90
12370;DHT22;6249;52.128;9.986;2022-11-15T15:29:25;15.00;99.90
12370;DHT22;6249;52.128;9.986;2022-11-15T15:32:46;14.80;99.90
12370;DHT22;6249;52.128;9.986;2022-11-15T15:36:11;14.70;99.90
12370;DHT22;6249;52.128;9.986;2022-11-15T15:39:32;14.70;99.90
12370;DHT22;6249;52.128;9.986;2022-11-15T15:42:56;14.70;99.90
12370;DHT22;6249;52.128;9.986;2022-11-15T15:46:18;14.60;99.90
12370;DHT22;6249;52.128;9.986;2022-11-15T15:49:39;14.50;99.90
12370;DHT22;6249;52.128;9.986;2022-11-15T15:53:03;14.40;99.90
12370;DHT22;6249;52.128;9.986;2022-11-15T15:56:27;14.40;99.90
12370;DHT22;6249;52.128;9.986;2022-11-15T15:59:48;14.30;99.90
12370;DHT22;6249;52.128;9.986;2022-11-15T16:03:11;14.30;99.90
12370;DHT22;6249;52.128;9.986;2022-11-15T16:06:38;14.20;99.90
12370;DHT22;6249;52.128;9.986;2022-11-15T16:13:37;14.00;99.90
12370;DHT22;6249;52.128;9.986;2022-11-15T16:16:57;13.90;99.90
12370;DHT22;6249;52.128;9.986;2022-11-15T16:23:57;13.90;99.90
12370;DHT22;6249;52.128;9.986;2022-11-15T16:27:22;13.80;99.90
12370;DHT22;6249;52.128;9.986;2022-11-15T16:30:42;13.80;99.90
12370;DHT22;6249;52.128;9.986;2022-11-15T16:34:03;13.60;99.90
12370;DHT22;6249;52.128;9.986;2022-11-15T16:37:26;13.50;99.90
12370;DHT22;6249;52.128;9.986;2022-11-15T16:40:49;13.50;99.90
12370;DHT22;6249;52.128;9.986;2022-11-15T16:44:10;13.40;99.90
12370;DHT22;6249;52.128;9.986;2022-11-15T16:47:33;13.30;99.90
12370;DHT22;6249;52.128;9.986;2022-11-15T16:50:55;13.30;99.90
12370;DHT22;6249;52.128;9.986;2022-11-15T16:54:16;13.20;99.90
12370;DHT22;6249;52.128;9.986;2022-11-15T16:57:39;13.20;99.90
12370;DHT22;6249;52.128;9.986;2022-11-15T17:01:02;13.20;99.90
12370;DHT22;6249;52.128;9.986;2022-11-15T17:04:24;13.30;99.90
12370;DHT22;6249;52.128;9.986;2022-11-15T17:07:50;13.20;99.90
12370;DHT22;6249;52.128;9.986;2022-11-15T17:11:18;13.20;99.90
12370;DHT22;6249;52.128;9.986;2022-11-15T17:14:39;13.20;99.90
12370;DHT22;6249;52.128;9.986;2022-11-15T17:18:00;13.20;99.90
12370;DHT22;6249;52.128;9.986;2022-11-15T17:21:23;13.30;99.90
12370;DHT22;6249;52.128;9.986;2022-11-15T17:24:43;13.30;99.90
12370;DHT22;6249;52.128;9.986;2022-11-15T17:28:07;13.30;99.90
12370;DHT22;6249;52.128;9.986;2022-11-15T17:31:30;13.30;99.90
12370;DHT22;6249;52.128;9.986;2022-11-15T17:34:52;13.30;99.90
12370;DHT22;6249;52.128;9.986;2022-11-15T17:38:13;13.30;99.90
12370;DHT22;6249;52.128;9.986;2022-11-15T17:41:34;13.30;99.90
12370;DHT22;6249;52.128;9.986;2022-11-15T17:44:55;13.30;99.90
12370;DHT22;6249;52.128;9.986;2022-11-15T17:48:15;13.30;99.90
12370;DHT22;6249;52.128;9.986;2022-11-15T17:51:38;13.30;99.90
12370;DHT22;6249;52.128;9.986;2022-11-15T17:55:01;13.20;99.90
12370;DHT22;6249;52.128;9.986;2022-11-15T17:58:22;13.20;99.90
12370;DHT22;6249;52.128;9.986;2022-11-15T18:01:43;13.20;99.90
12370;DHT22;6249;52.128;9.986;2022-11-15T18:05:06;13.10;99.90
12370;DHT22;6249;52.128;9.986;2022-11-15T18:08:27;13.10;99.90
12370;DHT22;6249;52.128;9.986;2022-11-15T18:11:50;13.00;99.90
12370;DHT22;6249;52.128;9.986;2022-11-15T18:15:12;13.00;99.90
12370;DHT22;6249;52.128;9.986;2022-11-15T18:18:34;13.00;99.90
12370;DHT22;6249;52.128;9.986;2022-11-15T18:21:57;12.90;99.90
12370;DHT22;6249;52.128;9.986;2022-11-15T18:25:23;12.90;99.90
12370;DHT22;6249;52.128;9.986;2022-11-15T18:28:45;12.90;99.90
12370;DHT22;6249;52.128;9.986;2022-11-15T18:32:08;13.00;99.90
12370;DHT22;6249;52.128;9.986;2022-11-15T18:35:36;13.00;99.90
12370;DHT22;6249;52.128;9.986;2022-11-15T18:38:59;12.90;99.90
12370;DHT22;6249;52.128;9.986;2022-11-15T18:42:23;12.80;99.90
12370;DHT22;6249;52.128;9.986;2022-11-15T18:45:44;12.90;99.90
12370;DHT22;6249;52.128;9.986;2022-11-15T18:49:05;12.90;99.90
12370;DHT22;6249;52.128;9.986;2022-11-15T18:52:29;13.00;99.90
12370;DHT22;6249;52.128;9.986;2022-11-15T18:55:52;13.00;99.90
12370;DHT22;6249;52.128;9.986;2022-11-15T18:59:13;13.10;99.90
12370;DHT22;6249;52.128;9.986;2022-11-15T19:02:34;13.20;99.90
12370;DHT22;6249;52.128;9.986;2022-11-15T19:06:05;13.20;99.90
12370;DHT22;6249;52.128;9.986;2022-11-15T19:09:26;13.30;99.90
12370;DHT22;6249;52.128;9.986;2022-11-15T19:12:51;13.50;99.90
12370;DHT22;6249;52.128;9.986;2022-11-15T19:16:16;13.50;99.90
12370;DHT22;6249;52.128;9.986;2022-11-15T19:19:36;13.50;99.90
12370;DHT22;6249;52.128;9.986;2022-11-15T19:22:59;13.50;99.90
12370;DHT22;6249;52.128;9.986;2022-11-15T19:26:21;13.50;99.90
12370;DHT22;6249;52.128;9.986;2022-11-15T19:29:42;13.60;99.90
12370;DHT22;6249;52.128;9.986;2022-11-15T19:33:03;13.60;99.90
12370;DHT22;6249;52.128;9.986;2022-11-15T19:36:27;13.50;99.90
12370;DHT22;6249;52.128;9.986;2022-11-15T19:39:48;13.50;99.90
12370;DHT22;6249;52.128;9.986;2022-11-15T19:43:09;13.30;99.90
12370;DHT22;6249;52.128;9.986;2022-11-15T19:46:32;13.20;99.90
12370;DHT22;6249;52.128;9.986;2022-11-15T19:49:53;13.10;99.90
12370;DHT22;6249;52.128;9.986;2022-11-15T19:53:13;13.00;99.90
12370;DHT22;6249;52.128;9.986;2022-11-15T19:56:37;12.90;99.90
12370;DHT22;6249;52.128;9.986;2022-11-15T19:59:59;13.00;99.90
12370;DHT22;6249;52.128;9.986;2022-11-15T20:03:19;12.90;99.90
12370;DHT22;6249;52.128;9.986;2022-11-15T20:06:42;12.90;99.90
12370;DHT22;6249;52.128;9.986;2022-11-15T20:10:05;13.10;99.90
12370;DHT22;6249;52.128;9.986;2022-11-15T20:13:28;13.20;99.90
12370;DHT22;6249;52.128;9.986;2022-11-15T20:16:51;13.20;99.90
12370;DHT22;6249;52.128;9.986;2022-11-15T20:20:12;13.20;99.90
12370;DHT22;6249;52.128;9.986;2022-11-15T20:23:33;13.10;99.90
12370;DHT22;6249;52.128;9.986;2022-11-15T20:26:58;13.00;99.90
12370;DHT22;6249;52.128;9.986;2022-11-15T20:30:19;12.90;99.90
12370;DHT22;6249;52.128;9.986;2022-11-15T20:33:42;12.90;99.90
12370;DHT22;6249;52.128;9.986;2022-11-15T20:37:07;12.80;99.90
12370;DHT22;6249;52.128;9.986;2022-11-15T20:40:30;12.80;99.90
12370;DHT22;6249;52.128;9.986;2022-11-15T20:43:51;12.80;99.90
12370;DHT22;6249;52.128;9.986;2022-11-15T20:47:11;12.80;99.90
12370;DHT22;6249;52.128;9.986;2022-11-15T20:50:34;12.70;99.90
12370;DHT22;6249;52.128;9.986;2022-11-15T20:53:57;12.70;99.90
12370;DHT22;6249;52.128;9.986;2022-11-15T20:57:18;12.70;99.90
12370;DHT22;6249;52.128;9.986;2022-11-15T21:00:38;12.80;99.90
12370;DHT22;6249;52.128;9.986;2022-11-15T21:04:02;12.90;99.90
12370;DHT22;6249;52.128;9.986;2022-11-15T21:07:25;13.00;99.90
12370;DHT22;6249;52.128;9.986;2022-11-15T21:10:55;13.00;99.90
12370;DHT22;6249;52.128;9.986;2022-11-15T21:14:34;13.00;99.90
12370;DHT22;6249;52.128;9.986;2022-11-15T21:17:55;12.90;99.90
12370;DHT22;6249;52.128;9.986;2022-11-15T21:21:15;12.90;99.90
12370;DHT22;6249;52.128;9.986;2022-11-15T21:24:38;12.80;99.90
12370;DHT22;6249;52.128;9.986;2022-11-15T21:28:01;12.80;99.90
12370;DHT22;6249;52.128;9.986;2022-11-15T21:31:24;12.80;99.90
12370;DHT22;6249;52.128;9.986;2022-11-15T21:34:47;12.80;99.90
12370;DHT22;6249;52.128;9.986;2022-11-15T21:38:08;12.90;99.90
12370;DHT22;6249;52.128;9.986;2022-11-15T21:41:29;12.80;99.90
12370;DHT22;6249;52.128;9.986;2022-11-15T21:44:50;12.80;99.90
12370;DHT22;6249;52.128;9.986;2022-11-15T21:48:10;12.80;99.90
12370;DHT22;6249;52.128;9.986;2022-11-15T21:51:33;12.90;99.90
12370;DHT22;6249;52.128;9.986;2022-11-15T21:54:54;12.80;99.90
12370;DHT22;6249;52.128;9.986;2022-11-15T21:58:19;12.80;99.90
12370;DHT22;6249;52.128;9.986;2022-11-15T22:01:43;12.70;99.90
12370;DHT22;6249;52.128;9.986;2022-11-15T22:05:22;12.80;99.90
12370;DHT22;6249;52.128;9.986;2022-11-15T22:08:45;12.80;99.90
12370;DHT22;6249;52.128;9.986;2022-11-15T22:12:06;12.80;99.90
12370;DHT22;6249;52.128;9.986;2022-11-15T22:15:26;12.70;99.90
12370;DHT22;6249;52.128;9.986;2022-11-15T22:18:49;12.80;99.90
12370;DHT22;6249;52.128;9.986;2022-11-15T22:22:10;12.70;99.90
12370;DHT22;6249;52.128;9.986;2022-11-15T22:25:33;12.80;99.90
12370;DHT22;6249;52.128;9.986;2022-11-15T22:29:01;12.60;99.90
12370;DHT22;6249;52.128;9.986;2022-11-15T22:32:22;12.50;99.90
12370;DHT22;6249;52.128;9.986;2022-11-15T22:35:45;12.60;99.90
12370;DHT22;6249;52.128;9.986;2022-11-15T22:39:08;12.50;99.90
12370;DHT22;6249;52.128;9.986;2022-11-15T22:42:31;12.40;99.90
12370;DHT22;6249;52.128;9.986;2022-11-15T22:45:53;12.50;99.90
12370;DHT22;6249;52.128;9.986;2022-11-15T22:49:14;12.50;99.90
12370;DHT22;6249;52.128;9.986;2022-11-15T22:52:34;12.60;99.90
12370;DHT22;6249;52.128;9.986;2022-11-15T22:56:00;12.60;99.90
12370;DHT22;6249;52.128;9.986;2022-11-15T22:59:21;12.50;99.90
12370;DHT22;6249;52.128;9.986;2022-11-15T23:02:44;12.40;99.90
12370;DHT22;6249;52.128;9.986;2022-11-15T23:06:05;12.30;99.90
12370;DHT22;6249;52.128;9.986;2022-11-15T23:09:26;12.40;99.90
12370;DHT22;6249;52.128;9.986;2022-11-15T23:12:47;12.40;99.90
12370;DHT22;6249;52.128;9.986;2022-11-15T23:16:29;12.40;99.90
12370;DHT22;6249;52.128;9.986;2022-11-15T23:19:55;12.50;99.90
12370;DHT22;6249;52.128;9.986;2022-11-15T23:23:18;12.40;99.90
12370;DHT22;6249;52.128;9.986;2022-11-15T23:26:39;12.40;99.90
12370;DHT22;6249;52.128;9.986;2022-11-15T23:30:05;12.40;99.90
12370;DHT22;6249;52.128;9.986;2022-11-15T23:33:46;12.40;99.90
12370;DHT22;6249;52.128;9.986;2022-11-15T23:37:21;12.40;99.90
12370;DHT22;6249;52.128;9.986;2022-11-15T23:40:50;12.40;99.90
12370;DHT22;6249;52.128;9.986;2022-11-15T23:44:11;12.60;99.90
12370;DHT22;6249;52.128;9.986;2022-11-15T23:47:31;12.60;99.90
12370;DHT22;6249;52.128;9.986;2022-11-15T23:50:54;12.70;99.90
12370;DHT22;6249;52.128;9.986;2022-11-15T23:54:15;12.80;99.90
12370;DHT22;6249;52.128;9.986;2022-11-15T23:57:38;12.90;99.90
